sensor_id;sensor_type;location;lat;lon;timestamp;P1;durP1;ratioP1;P2;durP2;ratioP2
23304;SDS011;11821;51.456;8.844;2023-04-21T00:02:15;27.92;;;22.27;;
23304;SDS011;11821;51.456;8.844;2023-04-21T00:04:42;28.90;;;19.23;;
23304;SDS011;11821;51.456;8.844;2023-04-21T00:07:11;25.25;;;19.73;;
23304;SDS011;11821;51.456;8.844;2023-04-21T00:09:39;24.33;;;20.42;;
23304;SDS011;11821;51.456;8.844;2023-04-21T00:12:07;24.33;;;19.77;;
23304;SDS011;11821;51.456;8.844;2023-04-21T00:14:35;27.05;;;21.58;;
23304;SDS011;11821;51.456;8.844;2023-04-21T00:17:01;23.58;;;19.15;;
23304;SDS011;11821;51.456;8.844;2023-04-21T00:19:28;27.15;;;20.55;;
23304;SDS011;11821;51.456;8.844;2023-04-21T00:21:59;28.58;;;21.42;;
23304;SDS011;11821;51.456;8.844;2023-04-21T00:24:26;27.65;;;21.00;;
23304;SDS011;11821;51.456;8.844;2023-04-21T00:26:53;25.77;;;21.48;;
23304;SDS011;11821;51.456;8.844;2023-04-21T00:29:20;29.13;;;21.20;;
23304;SDS011;11821;51.456;8.844;2023-04-21T00:31:46;27.63;;;21.75;;
23304;SDS011;11821;51.456;8.844;2023-04-21T00:34:13;25.48;;;21.05;;
23304;SDS011;11821;51.456;8.844;2023-04-21T00:36:39;26.83;;;20.77;;
23304;SDS011;11821;51.456;8.844;2023-04-21T00:39:06;27.23;;;21.88;;
23304;SDS011;11821;51.456;8.844;2023-04-21T00:41:34;28.95;;;21.92;;
23304;SDS011;11821;51.456;8.844;2023-04-21T00:44:04;28.85;;;21.92;;
23304;SDS011;11821;51.456;8.844;2023-04-21T00:46:31;28.35;;;21.50;;
23304;SDS011;11821;51.456;8.844;2023-04-21T00:48:57;29.38;;;21.50;;
23304;SDS011;11821;51.456;8.844;2023-04-21T00:51:26;24.95;;;20.42;;
23304;SDS011;11821;51.456;8.844;2023-04-21T00:53:54;29.60;;;21.70;;
23304;SDS011;11821;51.456;8.844;2023-04-21T00:56:21;28.33;;;21.10;;
23304;SDS011;11821;51.456;8.844;2023-04-21T00:58:47;28.05;;;21.00;;
23304;SDS011;11821;51.456;8.844;2023-04-21T01:01:15;30.35;;;21.45;;
23304;SDS011;11821;51.456;8.844;2023-04-21T01:03:44;24.80;;;21.08;;
23304;SDS011;11821;51.456;8.844;2023-04-21T01:06:14;31.30;;;21.63;;
23304;SDS011;11821;51.456;8.844;2023-04-21T01:08:41;27.17;;;20.70;;
23304;SDS011;11821;51.456;8.844;2023-04-21T01:11:08;29.42;;;21.05;;
23304;SDS011;11821;51.456;8.844;2023-04-21T01:13:35;26.52;;;21.08;;
23304;SDS011;11821;51.456;8.844;2023-04-21T01:16:02;30.65;;;22.00;;
23304;SDS011;11821;51.456;8.844;2023-04-21T01:18:29;26.88;;;21.67;;
23304;SDS011;11821;51.456;8.844;2023-04-21T01:20:55;27.23;;;21.20;;
23304;SDS011;11821;51.456;8.844;2023-04-21T01:23:23;22.80;;;16.92;;
23304;SDS011;11821;51.456;8.844;2023-04-21T01:25:50;22.80;;;19.23;;
23304;SDS011;11821;51.456;8.844;2023-04-21T01:28:24;29.48;;;21.05;;
23304;SDS011;11821;51.456;8.844;2023-04-21T01:30:51;31.05;;;21.50;;
23304;SDS011;11821;51.456;8.844;2023-04-21T01:33:20;23.15;;;19.35;;
23304;SDS011;11821;51.456;8.844;2023-04-21T01:35:47;24.42;;;19.88;;
23304;SDS011;11821;51.456;8.844;2023-04-21T01:38:18;27.92;;;21.23;;
23304;SDS011;11821;51.456;8.844;2023-04-21T01:40:46;26.05;;;21.17;;
23304;SDS011;11821;51.456;8.844;2023-04-21T01:43:13;26.02;;;20.17;;
23304;SDS011;11821;51.456;8.844;2023-04-21T01:45:40;26.70;;;20.40;;
23304;SDS011;11821;51.456;8.844;2023-04-21T01:48:06;27.02;;;20.98;;
23304;SDS011;11821;51.456;8.844;2023-04-21T01:50:33;29.67;;;22.17;;
23304;SDS011;11821;51.456;8.844;2023-04-21T01:53:00;26.83;;;20.60;;
23304;SDS011;11821;51.456;8.844;2023-04-21T01:55:27;26.20;;;19.88;;
23304;SDS011;11821;51.456;8.844;2023-04-21T01:57:54;25.25;;;19.75;;
23304;SDS011;11821;51.456;8.844;2023-04-21T02:00:24;33.00;;;21.90;;
23304;SDS011;11821;51.456;8.844;2023-04-21T02:02:51;28.33;;;21.10;;
23304;SDS011;11821;51.456;8.844;2023-04-21T02:05:18;25.05;;;19.83;;
23304;SDS011;11821;51.456;8.844;2023-04-21T02:07:44;30.33;;;20.45;;
23304;SDS011;11821;51.456;8.844;2023-04-21T02:10:11;25.50;;;19.98;;
23304;SDS011;11821;51.456;8.844;2023-04-21T02:12:38;28.60;;;21.75;;
23304;SDS011;11821;51.456;8.844;2023-04-21T02:15:04;28.73;;;21.40;;
23304;SDS011;11821;51.456;8.844;2023-04-21T02:17:31;28.63;;;21.58;;
23304;SDS011;11821;51.456;8.844;2023-04-21T02:19:58;29.10;;;20.67;;
23304;SDS011;11821;51.456;8.844;2023-04-21T02:22:24;26.90;;;20.67;;
23304;SDS011;11821;51.456;8.844;2023-04-21T02:24:51;29.38;;;21.13;;
23304;SDS011;11821;51.456;8.844;2023-04-21T02:27:18;23.92;;;20.70;;
23304;SDS011;11821;51.456;8.844;2023-04-21T02:29:45;27.08;;;20.88;;
23304;SDS011;11821;51.456;8.844;2023-04-21T02:32:11;28.17;;;21.17;;
23304;SDS011;11821;51.456;8.844;2023-04-21T02:34:38;26.77;;;21.67;;
23304;SDS011;11821;51.456;8.844;2023-04-21T02:37:06;27.40;;;21.15;;
23304;SDS011;11821;51.456;8.844;2023-04-21T02:39:33;27.40;;;21.08;;
23304;SDS011;11821;51.456;8.844;2023-04-21T02:42:00;27.80;;;20.83;;
23304;SDS011;11821;51.456;8.844;2023-04-21T02:44:26;28.40;;;22.50;;
23304;SDS011;11821;51.456;8.844;2023-04-21T02:46:53;29.90;;;20.73;;
23304;SDS011;11821;51.456;8.844;2023-04-21T02:49:19;29.20;;;21.90;;
23304;SDS011;11821;51.456;8.844;2023-04-21T02:51:46;28.70;;;22.10;;
23304;SDS011;11821;51.456;8.844;2023-04-21T02:54:12;28.05;;;22.33;;
23304;SDS011;11821;51.456;8.844;2023-04-21T02:56:40;28.48;;;21.15;;
23304;SDS011;11821;51.456;8.844;2023-04-21T02:59:06;26.85;;;20.42;;
23304;SDS011;11821;51.456;8.844;2023-04-21T03:01:33;26.42;;;21.65;;
23304;SDS011;11821;51.456;8.844;2023-04-21T03:04:00;27.50;;;21.42;;
23304;SDS011;11821;51.456;8.844;2023-04-21T03:06:26;27.05;;;21.95;;
23304;SDS011;11821;51.456;8.844;2023-04-21T03:08:53;31.98;;;22.85;;
23304;SDS011;11821;51.456;8.844;2023-04-21T03:11:20;29.80;;;21.27;;
23304;SDS011;11821;51.456;8.844;2023-04-21T03:13:46;26.95;;;21.38;;
23304;SDS011;11821;51.456;8.844;2023-04-21T03:16:13;30.52;;;22.38;;
23304;SDS011;11821;51.456;8.844;2023-04-21T03:18:42;25.80;;;20.83;;
23304;SDS011;11821;51.456;8.844;2023-04-21T03:21:10;27.48;;;21.67;;
23304;SDS011;11821;51.456;8.844;2023-04-21T03:23:37;28.92;;;21.73;;
23304;SDS011;11821;51.456;8.844;2023-04-21T03:26:07;28.75;;;22.13;;
23304;SDS011;11821;51.456;8.844;2023-04-21T03:28:34;31.42;;;23.67;;
23304;SDS011;11821;51.456;8.844;2023-04-21T03:31:02;30.90;;;23.02;;
23304;SDS011;11821;51.456;8.844;2023-04-21T03:33:28;32.50;;;23.58;;
23304;SDS011;11821;51.456;8.844;2023-04-21T03:35:55;31.35;;;22.70;;
23304;SDS011;11821;51.456;8.844;2023-04-21T03:38:22;29.90;;;21.98;;
23304;SDS011;11821;51.456;8.844;2023-04-21T03:40:48;29.73;;;22.75;;
23304;SDS011;11821;51.456;8.844;2023-04-21T03:43:15;27.10;;;21.85;;
23304;SDS011;11821;51.456;8.844;2023-04-21T03:45:42;29.02;;;21.95;;
23304;SDS011;11821;51.456;8.844;2023-04-21T03:48:08;31.92;;;23.13;;
23304;SDS011;11821;51.456;8.844;2023-04-21T03:50:35;15.52;;;12.80;;
23304;SDS011;11821;51.456;8.844;2023-04-21T03:53:01;27.15;;;21.83;;
23304;SDS011;11821;51.456;8.844;2023-04-21T03:55:28;29.55;;;22.92;;
23304;SDS011;11821;51.456;8.844;2023-04-21T03:57:54;29.33;;;22.58;;
23304;SDS011;11821;51.456;8.844;2023-04-21T04:00:22;31.10;;;23.05;;
23304;SDS011;11821;51.456;8.844;2023-04-21T04:02:50;29.30;;;23.55;;
23304;SDS011;11821;51.456;8.844;2023-04-21T04:05:16;38.38;;;24.27;;
23304;SDS011;11821;51.456;8.844;2023-04-21T04:07:43;37.17;;;24.80;;
23304;SDS011;11821;51.456;8.844;2023-04-21T04:10:10;35.97;;;24.98;;
23304;SDS011;11821;51.456;8.844;2023-04-21T04:12:36;33.47;;;24.83;;
23304;SDS011;11821;51.456;8.844;2023-04-21T04:15:03;33.88;;;24.90;;
23304;SDS011;11821;51.456;8.844;2023-04-21T04:17:30;33.92;;;24.85;;
23304;SDS011;11821;51.456;8.844;2023-04-21T04:19:57;32.50;;;23.85;;
23304;SDS011;11821;51.456;8.844;2023-04-21T04:22:23;33.78;;;24.27;;
23304;SDS011;11821;51.456;8.844;2023-04-21T04:24:50;32.83;;;23.73;;
23304;SDS011;11821;51.456;8.844;2023-04-21T04:27:17;33.55;;;23.58;;
23304;SDS011;11821;51.456;8.844;2023-04-21T04:29:44;33.20;;;24.65;;
23304;SDS011;11821;51.456;8.844;2023-04-21T04:32:13;30.15;;;23.58;;
23304;SDS011;11821;51.456;8.844;2023-04-21T04:34:40;34.85;;;23.83;;
23304;SDS011;11821;51.456;8.844;2023-04-21T04:37:07;33.83;;;23.20;;
23304;SDS011;11821;51.456;8.844;2023-04-21T04:39:35;34.33;;;23.42;;
23304;SDS011;11821;51.456;8.844;2023-04-21T04:42:05;30.85;;;23.42;;
23304;SDS011;11821;51.456;8.844;2023-04-21T04:44:33;31.63;;;22.88;;
23304;SDS011;11821;51.456;8.844;2023-04-21T04:47:00;32.25;;;23.83;;
23304;SDS011;11821;51.456;8.844;2023-04-21T04:49:27;28.95;;;23.30;;
23304;SDS011;11821;51.456;8.844;2023-04-21T04:51:53;30.80;;;22.52;;
23304;SDS011;11821;51.456;8.844;2023-04-21T04:54:20;33.65;;;22.75;;
23304;SDS011;11821;51.456;8.844;2023-04-21T04:56:47;33.70;;;22.45;;
23304;SDS011;11821;51.456;8.844;2023-04-21T04:59:14;26.05;;;19.65;;
23304;SDS011;11821;51.456;8.844;2023-04-21T05:01:40;30.58;;;22.25;;
23304;SDS011;11821;51.456;8.844;2023-04-21T05:04:07;35.17;;;21.85;;
23304;SDS011;11821;51.456;8.844;2023-04-21T05:06:33;33.67;;;22.60;;
23304;SDS011;11821;51.456;8.844;2023-04-21T05:09:00;27.40;;;21.35;;
23304;SDS011;11821;51.456;8.844;2023-04-21T05:11:27;28.13;;;20.88;;
23304;SDS011;11821;51.456;8.844;2023-04-21T05:13:53;30.00;;;21.35;;
23304;SDS011;11821;51.456;8.844;2023-04-21T05:16:20;33.78;;;23.15;;
23304;SDS011;11821;51.456;8.844;2023-04-21T05:18:47;28.25;;;22.25;;
23304;SDS011;11821;51.456;8.844;2023-04-21T05:21:21;32.45;;;23.83;;
23304;SDS011;11821;51.456;8.844;2023-04-21T05:23:48;27.33;;;21.67;;
23304;SDS011;11821;51.456;8.844;2023-04-21T05:26:15;29.52;;;21.77;;
23304;SDS011;11821;51.456;8.844;2023-04-21T05:28:41;149.55;;;90.68;;
23304;SDS011;11821;51.456;8.844;2023-04-21T05:31:08;30.98;;;24.13;;
23304;SDS011;11821;51.456;8.844;2023-04-21T05:33:34;33.30;;;21.55;;
23304;SDS011;11821;51.456;8.844;2023-04-21T05:36:01;36.03;;;22.27;;
23304;SDS011;11821;51.456;8.844;2023-04-21T05:38:27;35.92;;;22.70;;
23304;SDS011;11821;51.456;8.844;2023-04-21T05:40:54;35.35;;;21.92;;
23304;SDS011;11821;51.456;8.844;2023-04-21T05:43:21;28.85;;;21.30;;
23304;SDS011;11821;51.456;8.844;2023-04-21T05:45:47;35.90;;;22.25;;
23304;SDS011;11821;51.456;8.844;2023-04-21T05:48:14;31.10;;;22.50;;
23304;SDS011;11821;51.456;8.844;2023-04-21T05:50:41;26.98;;;21.42;;
23304;SDS011;11821;51.456;8.844;2023-04-21T05:53:07;23.77;;;19.63;;
23304;SDS011;11821;51.456;8.844;2023-04-21T05:55:34;29.15;;;21.95;;
23304;SDS011;11821;51.456;8.844;2023-04-21T05:58:01;24.35;;;19.02;;
23304;SDS011;11821;51.456;8.844;2023-04-21T06:00:28;27.60;;;20.92;;
23304;SDS011;11821;51.456;8.844;2023-04-21T06:02:55;35.60;;;26.88;;
23304;SDS011;11821;51.456;8.844;2023-04-21T06:05:22;29.55;;;24.13;;
23304;SDS011;11821;51.456;8.844;2023-04-21T06:07:48;27.48;;;22.70;;
23304;SDS011;11821;51.456;8.844;2023-04-21T06:10:16;27.77;;;22.70;;
23304;SDS011;11821;51.456;8.844;2023-04-21T06:12:43;30.85;;;21.92;;
23304;SDS011;11821;51.456;8.844;2023-04-21T06:15:09;27.23;;;20.52;;
23304;SDS011;11821;51.456;8.844;2023-04-21T06:17:36;25.40;;;20.95;;
23304;SDS011;11821;51.456;8.844;2023-04-21T06:20:03;27.63;;;20.23;;
23304;SDS011;11821;51.456;8.844;2023-04-21T06:22:29;27.90;;;21.27;;
23304;SDS011;11821;51.456;8.844;2023-04-21T06:24:57;26.38;;;20.65;;
23304;SDS011;11821;51.456;8.844;2023-04-21T06:27:24;26.13;;;19.02;;
23304;SDS011;11821;51.456;8.844;2023-04-21T06:29:53;28.52;;;18.35;;
23304;SDS011;11821;51.456;8.844;2023-04-21T06:32:20;24.30;;;18.45;;
23304;SDS011;11821;51.456;8.844;2023-04-21T06:34:47;24.77;;;18.65;;
23304;SDS011;11821;51.456;8.844;2023-04-21T06:37:14;25.23;;;18.95;;
23304;SDS011;11821;51.456;8.844;2023-04-21T06:39:41;21.10;;;18.13;;
23304;SDS011;11821;51.456;8.844;2023-04-21T06:42:07;27.38;;;20.55;;
23304;SDS011;11821;51.456;8.844;2023-04-21T06:44:41;24.52;;;19.60;;
23304;SDS011;11821;51.456;8.844;2023-04-21T06:47:07;28.23;;;20.45;;
23304;SDS011;11821;51.456;8.844;2023-04-21T06:49:34;31.05;;;20.85;;
23304;SDS011;11821;51.456;8.844;2023-04-21T06:52:02;26.25;;;20.88;;
23304;SDS011;11821;51.456;8.844;2023-04-21T06:54:29;24.67;;;19.15;;
23304;SDS011;11821;51.456;8.844;2023-04-21T06:56:55;20.77;;;17.83;;
23304;SDS011;11821;51.456;8.844;2023-04-21T06:59:22;20.77;;;16.08;;
23304;SDS011;11821;51.456;8.844;2023-04-21T07:01:49;19.88;;;16.88;;
23304;SDS011;11821;51.456;8.844;2023-04-21T07:04:17;21.85;;;16.35;;
23304;SDS011;11821;51.456;8.844;2023-04-21T07:06:44;18.90;;;16.60;;
23304;SDS011;11821;51.456;8.844;2023-04-21T07:09:10;19.42;;;16.42;;
23304;SDS011;11821;51.456;8.844;2023-04-21T07:11:37;19.17;;;16.05;;
23304;SDS011;11821;51.456;8.844;2023-04-21T07:14:03;19.05;;;17.05;;
23304;SDS011;11821;51.456;8.844;2023-04-21T07:16:31;24.30;;;16.08;;
23304;SDS011;11821;51.456;8.844;2023-04-21T07:18:57;17.80;;;16.00;;
23304;SDS011;11821;51.456;8.844;2023-04-21T07:21:24;19.58;;;15.27;;
23304;SDS011;11821;51.456;8.844;2023-04-21T07:23:51;17.90;;;16.00;;
23304;SDS011;11821;51.456;8.844;2023-04-21T07:26:17;18.65;;;15.73;;
23304;SDS011;11821;51.456;8.844;2023-04-21T07:28:44;22.23;;;15.80;;
23304;SDS011;11821;51.456;8.844;2023-04-21T07:31:10;17.20;;;15.40;;
23304;SDS011;11821;51.456;8.844;2023-04-21T07:33:37;18.27;;;15.77;;
23304;SDS011;11821;51.456;8.844;2023-04-21T07:36:03;17.33;;;15.63;;
23304;SDS011;11821;51.456;8.844;2023-04-21T07:38:30;19.50;;;16.00;;
23304;SDS011;11821;51.456;8.844;2023-04-21T07:40:57;17.55;;;15.55;;
23304;SDS011;11821;51.456;8.844;2023-04-21T07:43:24;16.77;;;14.90;;
23304;SDS011;11821;51.456;8.844;2023-04-21T07:45:51;17.48;;;15.60;;
23304;SDS011;11821;51.456;8.844;2023-04-21T07:48:18;18.27;;;15.52;;
23304;SDS011;11821;51.456;8.844;2023-04-21T07:50:44;18.65;;;15.98;;
23304;SDS011;11821;51.456;8.844;2023-04-21T07:53:11;17.73;;;14.70;;
23304;SDS011;11821;51.456;8.844;2023-04-21T07:55:38;48.80;;;25.65;;
23304;SDS011;11821;51.456;8.844;2023-04-21T07:58:04;28.65;;;18.50;;
23304;SDS011;11821;51.456;8.844;2023-04-21T08:00:31;18.20;;;15.07;;
23304;SDS011;11821;51.456;8.844;2023-04-21T08:02:57;23.73;;;15.32;;
23304;SDS011;11821;51.456;8.844;2023-04-21T08:05:24;27.58;;;18.95;;
23304;SDS011;11821;51.456;8.844;2023-04-21T08:07:50;17.10;;;15.15;;
23304;SDS011;11821;51.456;8.844;2023-04-21T08:10:17;18.10;;;15.20;;
23304;SDS011;11821;51.456;8.844;2023-04-21T08:12:44;19.23;;;13.93;;
23304;SDS011;11821;51.456;8.844;2023-04-21T08:15:10;18.40;;;14.75;;
23304;SDS011;11821;51.456;8.844;2023-04-21T08:17:37;16.90;;;13.75;;
23304;SDS011;11821;51.456;8.844;2023-04-21T08:20:04;16.17;;;13.38;;
23304;SDS011;11821;51.456;8.844;2023-04-21T08:22:30;17.15;;;13.77;;
23304;SDS011;11821;51.456;8.844;2023-04-21T08:24:57;17.98;;;14.20;;
23304;SDS011;11821;51.456;8.844;2023-04-21T08:27:24;15.95;;;13.65;;
23304;SDS011;11821;51.456;8.844;2023-04-21T08:29:50;15.88;;;14.18;;
23304;SDS011;11821;51.456;8.844;2023-04-21T08:32:17;15.50;;;13.90;;
23304;SDS011;11821;51.456;8.844;2023-04-21T08:34:48;14.70;;;13.30;;
23304;SDS011;11821;51.456;8.844;2023-04-21T08:37:16;17.90;;;13.43;;
23304;SDS011;11821;51.456;8.844;2023-04-21T08:39:46;17.15;;;14.13;;
23304;SDS011;11821;51.456;8.844;2023-04-21T08:42:18;15.88;;;13.25;;
23304;SDS011;11821;51.456;8.844;2023-04-21T08:44:45;14.88;;;13.30;;
23304;SDS011;11821;51.456;8.844;2023-04-21T08:47:12;15.20;;;13.63;;
23304;SDS011;11821;51.456;8.844;2023-04-21T08:49:40;18.60;;;15.43;;
23304;SDS011;11821;51.456;8.844;2023-04-21T08:52:07;14.80;;;13.27;;
23304;SDS011;11821;51.456;8.844;2023-04-21T08:54:34;14.98;;;13.43;;
23304;SDS011;11821;51.456;8.844;2023-04-21T08:57:01;15.85;;;14.25;;
23304;SDS011;11821;51.456;8.844;2023-04-21T08:59:30;16.40;;;12.55;;
23304;SDS011;11821;51.456;8.844;2023-04-21T09:02:16;16.75;;;12.65;;
23304;SDS011;11821;51.456;8.844;2023-04-21T09:04:44;16.00;;;12.18;;
23304;SDS011;11821;51.456;8.844;2023-04-21T09:07:11;17.35;;;12.98;;
23304;SDS011;11821;51.456;8.844;2023-04-21T09:09:54;14.65;;;11.80;;
23304;SDS011;11821;51.456;8.844;2023-04-21T09:12:21;15.10;;;12.55;;
23304;SDS011;11821;51.456;8.844;2023-04-21T09:14:47;14.27;;;12.05;;
23304;SDS011;11821;51.456;8.844;2023-04-21T09:17:15;15.10;;;11.93;;
23304;SDS011;11821;51.456;8.844;2023-04-21T09:19:41;13.52;;;11.50;;
23304;SDS011;11821;51.456;8.844;2023-04-21T09:22:08;12.18;;;11.13;;
23304;SDS011;11821;51.456;8.844;2023-04-21T09:24:35;13.20;;;11.15;;
23304;SDS011;11821;51.456;8.844;2023-04-21T09:27:02;13.65;;;12.27;;
23304;SDS011;11821;51.456;8.844;2023-04-21T09:29:29;13.93;;;12.27;;
23304;SDS011;11821;51.456;8.844;2023-04-21T09:31:55;11.35;;;10.25;;
23304;SDS011;11821;51.456;8.844;2023-04-21T09:34:23;11.55;;;10.30;;
23304;SDS011;11821;51.456;8.844;2023-04-21T09:37:00;12.85;;;10.52;;
23304;SDS011;11821;51.456;8.844;2023-04-21T09:39:30;11.85;;;10.40;;
23304;SDS011;11821;51.456;8.844;2023-04-21T09:41:57;13.57;;;11.32;;
23304;SDS011;11821;51.456;8.844;2023-04-21T09:44:24;13.93;;;12.57;;
23304;SDS011;11821;51.456;8.844;2023-04-21T09:46:52;12.50;;;10.77;;
23304;SDS011;11821;51.456;8.844;2023-04-21T09:49:20;12.65;;;11.45;;
23304;SDS011;11821;51.456;8.844;2023-04-21T09:51:48;12.35;;;10.90;;
23304;SDS011;11821;51.456;8.844;2023-04-21T09:54:15;13.00;;;11.65;;
23304;SDS011;11821;51.456;8.844;2023-04-21T09:56:43;14.27;;;11.68;;
23304;SDS011;11821;51.456;8.844;2023-04-21T09:59:11;12.77;;;11.00;;
23304;SDS011;11821;51.456;8.844;2023-04-21T10:01:39;17.27;;;11.88;;
23304;SDS011;11821;51.456;8.844;2023-04-21T10:04:06;16.45;;;12.38;;
23304;SDS011;11821;51.456;8.844;2023-04-21T10:06:33;11.98;;;10.77;;
23304;SDS011;11821;51.456;8.844;2023-04-21T10:09:00;12.25;;;10.77;;
23304;SDS011;11821;51.456;8.844;2023-04-21T10:11:28;14.80;;;10.60;;
23304;SDS011;11821;51.456;8.844;2023-04-21T10:13:55;14.07;;;11.23;;
23304;SDS011;11821;51.456;8.844;2023-04-21T10:16:21;13.30;;;10.25;;
23304;SDS011;11821;51.456;8.844;2023-04-21T10:18:48;13.60;;;9.90;;
23304;SDS011;11821;51.456;8.844;2023-04-21T10:21:18;12.15;;;9.25;;
23304;SDS011;11821;51.456;8.844;2023-04-21T10:23:47;10.30;;;9.30;;
23304;SDS011;11821;51.456;8.844;2023-04-21T10:26:25;10.75;;;9.65;;
23304;SDS011;11821;51.456;8.844;2023-04-21T10:28:58;12.25;;;9.35;;
23304;SDS011;11821;51.456;8.844;2023-04-21T10:31:35;9.35;;;8.48;;
23304;SDS011;11821;51.456;8.844;2023-04-21T10:39:00;11.48;;;9.05;;
23304;SDS011;11821;51.456;8.844;2023-04-21T10:41:32;11.82;;;8.18;;
23304;SDS011;11821;51.456;8.844;2023-04-21T10:43:59;12.48;;;9.82;;
23304;SDS011;11821;51.456;8.844;2023-04-21T10:46:33;9.57;;;8.68;;
23304;SDS011;11821;51.456;8.844;2023-04-21T10:49:03;11.35;;;8.80;;
23304;SDS011;11821;51.456;8.844;2023-04-21T10:51:30;12.35;;;8.38;;
23304;SDS011;11821;51.456;8.844;2023-04-21T10:54:02;8.63;;;7.53;;
23304;SDS011;11821;51.456;8.844;2023-04-21T10:56:30;8.65;;;7.30;;
23304;SDS011;11821;51.456;8.844;2023-04-21T10:58:56;8.98;;;7.15;;
23304;SDS011;11821;51.456;8.844;2023-04-21T11:01:24;8.10;;;7.30;;
23304;SDS011;11821;51.456;8.844;2023-04-21T11:03:50;6.90;;;6.30;;
23304;SDS011;11821;51.456;8.844;2023-04-21T11:06:19;6.00;;;5.40;;
23304;SDS011;11821;51.456;8.844;2023-04-21T11:08:55;6.95;;;6.35;;
23304;SDS011;11821;51.456;8.844;2023-04-21T11:11:22;6.72;;;5.93;;
23304;SDS011;11821;51.456;8.844;2023-04-21T11:13:49;6.53;;;5.10;;
23304;SDS011;11821;51.456;8.844;2023-04-21T11:16:18;5.60;;;5.03;;
23304;SDS011;11821;51.456;8.844;2023-04-21T11:18:45;8.82;;;5.80;;
23304;SDS011;11821;51.456;8.844;2023-04-21T11:21:16;6.32;;;5.10;;
23304;SDS011;11821;51.456;8.844;2023-04-21T11:26:10;10.55;;;5.03;;
23304;SDS011;11821;51.456;8.844;2023-04-21T11:28:38;5.85;;;4.63;;
23304;SDS011;11821;51.456;8.844;2023-04-21T11:31:06;10.30;;;5.05;;
23304;SDS011;11821;51.456;8.844;2023-04-21T11:33:36;5.88;;;4.22;;
23304;SDS011;11821;51.456;8.844;2023-04-21T11:36:04;5.30;;;4.80;;
23304;SDS011;11821;51.456;8.844;2023-04-21T11:38:36;5.80;;;4.53;;
23304;SDS011;11821;51.456;8.844;2023-04-21T11:41:06;4.65;;;4.25;;
23304;SDS011;11821;51.456;8.844;2023-04-21T11:43:36;4.80;;;4.40;;
23304;SDS011;11821;51.456;8.844;2023-04-21T11:46:15;7.03;;;4.90;;
23304;SDS011;11821;51.456;8.844;2023-04-21T11:48:43;6.60;;;4.82;;
23304;SDS011;11821;51.456;8.844;2023-04-21T11:51:13;5.65;;;5.15;;
23304;SDS011;11821;51.456;8.844;2023-04-21T11:53:40;5.75;;;4.95;;
23304;SDS011;11821;51.456;8.844;2023-04-21T11:56:08;6.00;;;4.85;;
23304;SDS011;11821;51.456;8.844;2023-04-21T11:58:37;6.00;;;4.43;;
23304;SDS011;11821;51.456;8.844;2023-04-21T12:01:07;4.50;;;3.92;;
23304;SDS011;11821;51.456;8.844;2023-04-21T12:03:34;5.38;;;4.57;;
23304;SDS011;11821;51.456;8.844;2023-04-21T12:06:00;5.07;;;4.55;;
23304;SDS011;11821;51.456;8.844;2023-04-21T12:08:30;7.65;;;4.80;;
23304;SDS011;11821;51.456;8.844;2023-04-21T12:10:57;6.63;;;5.00;;
23304;SDS011;11821;51.456;8.844;2023-04-21T12:13:26;7.93;;;4.65;;
23304;SDS011;11821;51.456;8.844;2023-04-21T12:15:53;5.00;;;4.43;;
23304;SDS011;11821;51.456;8.844;2023-04-21T12:18:19;5.72;;;4.35;;
23304;SDS011;11821;51.456;8.844;2023-04-21T12:20:49;4.82;;;4.25;;
23304;SDS011;11821;51.456;8.844;2023-04-21T12:23:17;7.85;;;4.55;;
23304;SDS011;11821;51.456;8.844;2023-04-21T12:25:44;5.93;;;4.60;;
23304;SDS011;11821;51.456;8.844;2023-04-21T12:28:13;4.28;;;3.75;;
23304;SDS011;11821;51.456;8.844;2023-04-21T12:30:41;6.85;;;4.82;;
23304;SDS011;11821;51.456;8.844;2023-04-21T12:33:07;5.85;;;3.95;;
23304;SDS011;11821;51.456;8.844;2023-04-21T12:35:34;6.70;;;4.57;;
23304;SDS011;11821;51.456;8.844;2023-04-21T12:38:01;4.95;;;3.85;;
23304;SDS011;11821;51.456;8.844;2023-04-21T12:40:27;8.07;;;5.43;;
23304;SDS011;11821;51.456;8.844;2023-04-21T12:42:54;8.30;;;4.60;;
23304;SDS011;11821;51.456;8.844;2023-04-21T12:45:20;6.13;;;5.50;;
23304;SDS011;11821;51.456;8.844;2023-04-21T12:47:47;7.25;;;5.03;;
23304;SDS011;11821;51.456;8.844;2023-04-21T12:50:14;8.25;;;5.53;;
23304;SDS011;11821;51.456;8.844;2023-04-21T12:52:40;6.45;;;5.65;;
23304;SDS011;11821;51.456;8.844;2023-04-21T12:55:07;7.03;;;4.80;;
23304;SDS011;11821;51.456;8.844;2023-04-21T12:57:33;5.30;;;4.90;;
23304;SDS011;11821;51.456;8.844;2023-04-21T13:00:00;5.50;;;4.50;;
23304;SDS011;11821;51.456;8.844;2023-04-21T13:02:26;5.90;;;5.22;;
23304;SDS011;11821;51.456;8.844;2023-04-21T13:04:55;6.75;;;5.38;;
23304;SDS011;11821;51.456;8.844;2023-04-21T13:07:21;5.63;;;5.10;;
23304;SDS011;11821;51.456;8.844;2023-04-21T13:09:51;5.22;;;4.43;;
23304;SDS011;11821;51.456;8.844;2023-04-21T13:12:38;6.40;;;5.05;;
23304;SDS011;11821;51.456;8.844;2023-04-21T13:15:07;6.05;;;5.18;;
23304;SDS011;11821;51.456;8.844;2023-04-21T13:17:34;5.20;;;4.70;;
23304;SDS011;11821;51.456;8.844;2023-04-21T13:20:00;7.72;;;5.10;;
23304;SDS011;11821;51.456;8.844;2023-04-21T13:22:26;6.40;;;5.00;;
23304;SDS011;11821;51.456;8.844;2023-04-21T13:24:52;8.40;;;5.88;;
23304;SDS011;11821;51.456;8.844;2023-04-21T13:27:19;7.65;;;4.82;;
23304;SDS011;11821;51.456;8.844;2023-04-21T13:29:45;6.88;;;5.28;;
23304;SDS011;11821;51.456;8.844;2023-04-21T13:32:13;6.07;;;5.30;;
23304;SDS011;11821;51.456;8.844;2023-04-21T13:34:40;6.10;;;5.15;;
23304;SDS011;11821;51.456;8.844;2023-04-21T13:37:06;5.07;;;4.57;;
23304;SDS011;11821;51.456;8.844;2023-04-21T13:39:35;6.10;;;5.50;;
23304;SDS011;11821;51.456;8.844;2023-04-21T13:42:01;5.72;;;5.20;;
23304;SDS011;11821;51.456;8.844;2023-04-21T13:44:28;6.75;;;6.05;;
23304;SDS011;11821;51.456;8.844;2023-04-21T13:46:55;8.77;;;5.40;;
23304;SDS011;11821;51.456;8.844;2023-04-21T13:49:21;8.88;;;5.78;;
23304;SDS011;11821;51.456;8.844;2023-04-21T13:51:51;6.90;;;5.43;;
23304;SDS011;11821;51.456;8.844;2023-04-21T13:54:17;6.68;;;5.90;;
23304;SDS011;11821;51.456;8.844;2023-04-21T13:56:44;10.18;;;5.40;;
23304;SDS011;11821;51.456;8.844;2023-04-21T13:59:11;6.32;;;5.50;;
23304;SDS011;11821;51.456;8.844;2023-04-21T14:01:45;5.90;;;5.38;;
23304;SDS011;11821;51.456;8.844;2023-04-21T14:04:15;7.20;;;6.50;;
23304;SDS011;11821;51.456;8.844;2023-04-21T14:06:41;7.88;;;6.00;;
23304;SDS011;11821;51.456;8.844;2023-04-21T14:09:08;5.30;;;4.90;;
23304;SDS011;11821;51.456;8.844;2023-04-21T14:11:35;6.63;;;5.85;;
23304;SDS011;11821;51.456;8.844;2023-04-21T14:14:01;5.55;;;4.95;;
23304;SDS011;11821;51.456;8.844;2023-04-21T14:16:28;6.65;;;5.35;;
23304;SDS011;11821;51.456;8.844;2023-04-21T14:18:54;12.20;;;5.78;;
23304;SDS011;11821;51.456;8.844;2023-04-21T14:21:20;6.10;;;5.18;;
23304;SDS011;11821;51.456;8.844;2023-04-21T14:23:47;6.88;;;5.40;;
23304;SDS011;11821;51.456;8.844;2023-04-21T14:26:13;7.20;;;5.30;;
23304;SDS011;11821;51.456;8.844;2023-04-21T14:28:40;6.55;;;4.93;;
23304;SDS011;11821;51.456;8.844;2023-04-21T14:31:06;5.40;;;4.90;;
23304;SDS011;11821;51.456;8.844;2023-04-21T14:33:32;9.50;;;5.20;;
23304;SDS011;11821;51.456;8.844;2023-04-21T14:35:59;6.20;;;5.28;;
23304;SDS011;11821;51.456;8.844;2023-04-21T14:38:26;9.48;;;4.85;;